createdAt,value
2019-05-19T00:00:03.108Z,0.00
2019-05-19T00:01:03.262Z,0.00
2019-05-19T00:02:03.429Z,0.00
2019-05-19T00:03:03.602Z,0.00
2019-05-19T00:04:03.770Z,0.00
2019-05-19T00:05:03.938Z,0.00
2019-05-19T00:06:04.112Z,0.00
2019-05-19T00:07:04.284Z,0.00
2019-05-19T00:08:04.466Z,0.00
2019-05-19T00:09:04.623Z,0.00
2019-05-19T00:10:04.821Z,0.00
2019-05-19T00:11:04.980Z,0.00
2019-05-19T00:12:05.152Z,0.00
2019-05-19T00:13:05.351Z,0.00
2019-05-19T00:14:05.493Z,0.00
2019-05-19T00:15:05.697Z,0.00
2019-05-19T00:16:05.829Z,0.00
2019-05-19T00:17:06.002Z,0.00
2019-05-19T00:18:06.171Z,0.00
2019-05-19T00:19:06.343Z,0.00
2019-05-19T00:20:06.517Z,0.00
2019-05-19T00:21:06.686Z,0.00
2019-05-19T00:22:06.849Z,0.00
2019-05-19T00:23:07.018Z,0.00
2019-05-19T00:24:07.187Z,0.00
2019-05-19T00:25:07.354Z,0.00
2019-05-19T00:26:07.533Z,0.00
2019-05-19T00:27:07.694Z,0.00
2019-05-19T00:28:07.861Z,0.00
2019-05-19T00:29:08.026Z,0.00
2019-05-19T00:30:08.193Z,0.00
2019-05-19T00:31:08.371Z,0.00
2019-05-19T00:32:08.533Z,0.00
2019-05-19T00:33:08.706Z,0.00
2019-05-19T00:34:08.870Z,0.00
2019-05-19T00:35:09.041Z,0.00
2019-05-19T00:36:09.209Z,0.00
2019-05-19T00:37:09.380Z,0.00
2019-05-19T00:38:09.559Z,0.00
2019-05-19T00:39:09.723Z,0.00
2019-05-19T00:40:09.896Z,0.00
2019-05-19T00:41:10.064Z,0.00
2019-05-19T00:42:10.230Z,0.00
2019-05-19T00:43:10.399Z,0.00
2019-05-19T00:44:10.571Z,0.00
2019-05-19T00:45:10.779Z,0.00
2019-05-19T00:46:10.950Z,0.00
2019-05-19T00:47:11.128Z,0.00
2019-05-19T00:48:11.297Z,0.00
2019-05-19T00:49:11.467Z,0.00
2019-05-19T00:50:12.315Z,0.00
2019-05-19T00:51:11.861Z,0.00
2019-05-19T00:52:12.025Z,0.00
2019-05-19T00:53:12.193Z,0.00
2019-05-19T00:54:12.358Z,0.00
2019-05-19T00:55:12.527Z,0.00
2019-05-19T00:56:12.693Z,0.00
2019-05-19T00:57:12.859Z,0.00
2019-05-19T00:58:13.036Z,0.00
2019-05-19T00:59:13.198Z,0.00
2019-05-19T01:00:13.371Z,0.00
2019-05-19T01:01:13.538Z,0.00
2019-05-19T01:02:13.709Z,0.00
2019-05-19T01:03:13.873Z,0.00
2019-05-19T01:04:14.045Z,0.00
2019-05-19T01:05:14.219Z,0.00
2019-05-19T01:06:14.383Z,0.00
2019-05-19T01:07:14.552Z,0.00
2019-05-19T01:08:14.717Z,0.00
2019-05-19T01:09:14.888Z,0.00
2019-05-19T01:10:15.051Z,0.00
2019-05-19T01:11:15.228Z,0.00
2019-05-19T01:12:15.393Z,0.00
2019-05-19T01:13:15.568Z,0.00
2019-05-19T01:14:15.744Z,0.00
2019-05-19T01:15:15.907Z,0.00
2019-05-19T01:16:16.088Z,0.00
2019-05-19T01:17:16.251Z,0.00
2019-05-19T01:18:16.428Z,0.00
2019-05-19T01:19:16.590Z,0.00
2019-05-19T01:20:16.759Z,0.00
2019-05-19T01:21:16.939Z,0.00
2019-05-19T01:22:17.115Z,0.00
2019-05-19T01:23:17.270Z,0.00
2019-05-19T01:24:17.445Z,0.00
2019-05-19T01:25:17.611Z,0.00
2019-05-19T01:26:17.777Z,0.00
2019-05-19T01:27:17.959Z,0.00
2019-05-19T01:28:18.126Z,0.00
2019-05-19T01:29:18.292Z,0.00
2019-05-19T01:30:18.464Z,0.00
2019-05-19T01:31:18.633Z,0.00
2019-05-19T01:32:18.800Z,0.00
2019-05-19T01:33:18.969Z,0.00
2019-05-19T01:34:19.140Z,0.00
2019-05-19T01:35:19.307Z,0.00
2019-05-19T01:36:19.483Z,0.00
2019-05-19T01:37:19.651Z,0.00
2019-05-19T01:38:19.817Z,0.00
2019-05-19T01:39:19.988Z,0.00
2019-05-19T01:40:20.147Z,0.00
2019-05-19T01:41:20.327Z,0.00
2019-05-19T01:42:20.490Z,0.00
2019-05-19T01:43:20.657Z,0.00
2019-05-19T01:44:20.826Z,0.00
2019-05-19T01:45:20.993Z,0.00
2019-05-19T01:46:21.168Z,0.00
2019-05-19T01:47:21.334Z,0.00
2019-05-19T01:48:21.504Z,0.00
2019-05-19T01:49:21.680Z,0.00
2019-05-19T01:50:21.849Z,0.00
2019-05-19T01:51:22.012Z,0.00
2019-05-19T01:52:22.185Z,0.00
2019-05-19T01:53:22.363Z,0.00
2019-05-19T01:54:22.525Z,0.00
2019-05-19T01:55:22.696Z,0.00
2019-05-19T01:56:22.866Z,0.00
2019-05-19T01:57:23.034Z,0.00
2019-05-19T01:58:23.207Z,0.00
2019-05-19T01:59:23.378Z,0.00
2019-05-19T02:00:23.547Z,0.00
2019-05-19T02:01:23.722Z,0.00
2019-05-19T02:02:23.890Z,0.00
2019-05-19T02:03:24.059Z,0.00
2019-05-19T02:04:24.231Z,0.00
2019-05-19T02:05:24.401Z,0.00
2019-05-19T02:06:24.571Z,0.00
2019-05-19T02:07:24.764Z,0.00
2019-05-19T02:08:24.905Z,0.00
2019-05-19T02:09:25.098Z,0.00
2019-05-19T02:10:25.273Z,0.00
2019-05-19T02:11:25.446Z,0.00
2019-05-19T02:12:25.618Z,0.00
2019-05-19T02:13:25.788Z,0.00
2019-05-19T02:14:25.968Z,0.00
2019-05-19T02:15:26.130Z,0.00
2019-05-19T02:16:26.303Z,0.00
2019-05-19T02:17:26.480Z,0.00
2019-05-19T02:18:26.647Z,0.00
2019-05-19T02:19:26.821Z,0.00
2019-05-19T02:20:33.206Z,0.00
2019-05-19T02:21:27.143Z,0.00
2019-05-19T02:22:27.313Z,0.00
2019-05-19T02:23:27.481Z,0.00
2019-05-19T02:24:27.645Z,0.00
2019-05-19T02:25:27.819Z,0.00
2019-05-19T02:26:27.986Z,0.00
2019-05-19T02:27:28.150Z,0.00
2019-05-19T02:28:28.323Z,0.00
2019-05-19T02:29:28.493Z,0.00
2019-05-19T02:30:28.668Z,0.00
2019-05-19T02:31:28.837Z,0.00
2019-05-19T02:32:29.005Z,0.00
2019-05-19T02:33:29.172Z,0.00
2019-05-19T02:34:29.338Z,0.00
2019-05-19T02:35:29.511Z,0.00
2019-05-19T02:36:29.687Z,0.00
2019-05-19T02:37:29.851Z,0.00
2019-05-19T02:38:30.021Z,0.00
2019-05-19T02:39:30.191Z,0.00
2019-05-19T02:40:30.359Z,0.00
2019-05-19T02:41:30.530Z,0.00
2019-05-19T02:42:30.703Z,0.00
2019-05-19T02:43:30.871Z,0.00
2019-05-19T02:44:31.040Z,0.00
2019-05-19T02:45:31.204Z,0.00
2019-05-19T02:46:31.389Z,0.00
2019-05-19T02:47:31.557Z,0.00
2019-05-19T02:48:31.724Z,0.00
2019-05-19T02:49:31.888Z,0.00
2019-05-19T02:50:32.053Z,0.00
2019-05-19T02:51:32.244Z,0.00
2019-05-19T02:52:32.408Z,0.00
2019-05-19T02:53:32.604Z,0.00
2019-05-19T02:54:32.750Z,0.00
2019-05-19T02:55:32.924Z,4.00
2019-05-19T02:56:33.101Z,4.00
2019-05-19T02:57:33.265Z,4.00
2019-05-19T02:58:33.434Z,4.00
2019-05-19T02:59:33.607Z,0.00
2019-05-19T03:00:33.778Z,0.00
2019-05-19T03:01:33.953Z,4.00
2019-05-19T03:02:34.130Z,4.00
2019-05-19T03:03:34.286Z,4.00
2019-05-19T03:04:34.461Z,4.00
2019-05-19T03:05:34.622Z,4.00
2019-05-19T03:06:34.801Z,8.00
2019-05-19T03:07:34.966Z,4.00
2019-05-19T03:08:35.135Z,8.00
2019-05-19T03:09:35.304Z,8.00
2019-05-19T03:10:35.477Z,12.00
2019-05-19T03:11:35.643Z,8.00
2019-05-19T03:12:35.819Z,8.00
2019-05-19T03:13:35.983Z,16.00
2019-05-19T03:14:36.154Z,12.00
2019-05-19T03:15:36.321Z,16.00
2019-05-19T03:16:36.499Z,20.00
2019-05-19T03:17:36.661Z,24.00
2019-05-19T03:18:36.826Z,28.00
2019-05-19T03:19:36.998Z,32.00
2019-05-19T03:20:37.169Z,32.00
2019-05-19T03:21:37.346Z,32.00
2019-05-19T03:22:37.515Z,40.00
2019-05-19T03:23:37.685Z,44.00
2019-05-19T03:24:37.853Z,44.00
2019-05-19T03:25:38.016Z,52.00
2019-05-19T03:26:38.182Z,56.00
2019-05-19T03:27:38.355Z,60.00
2019-05-19T03:28:38.524Z,68.00
2019-05-19T03:29:38.689Z,72.00
2019-05-19T03:30:38.877Z,76.00
2019-05-19T03:31:41.553Z,88.00
2019-05-19T03:32:43.618Z,92.00
2019-05-19T03:33:39.417Z,104.00
2019-05-19T03:34:39.578Z,112.00
2019-05-19T03:35:42.130Z,128.00
2019-05-19T03:36:44.303Z,140.00
2019-05-19T03:37:43.527Z,156.00
2019-05-19T03:38:41.424Z,168.00
2019-05-19T03:39:40.382Z,188.00
2019-05-19T03:40:40.546Z,208.00
2019-05-19T03:41:45.246Z,228.00
2019-05-19T03:42:42.750Z,248.00
2019-05-19T03:43:45.471Z,272.00
2019-05-19T03:44:45.030Z,288.00
2019-05-19T03:45:44.333Z,308.00
2019-05-19T03:46:41.597Z,332.00
2019-05-19T03:47:41.741Z,348.00
2019-05-19T03:48:44.963Z,368.00
2019-05-19T03:49:44.990Z,384.00
2019-05-19T03:50:44.096Z,400.00
2019-05-19T03:51:42.346Z,416.00
2019-05-19T03:52:42.933Z,436.00
2019-05-19T03:53:42.736Z,460.00
2019-05-19T03:54:47.557Z,484.00
2019-05-19T03:55:43.116Z,508.00
2019-05-19T03:56:44.992Z,536.00
2019-05-19T03:57:43.409Z,564.00
2019-05-19T03:58:43.589Z,592.00
2019-05-19T03:59:43.759Z,612.00
2019-05-19T04:00:43.923Z,636.00
2019-05-19T04:01:44.089Z,652.00
2019-05-19T04:02:44.258Z,668.00
2019-05-19T04:03:44.433Z,684.00
2019-05-19T04:04:44.613Z,700.00
2019-05-19T04:05:44.851Z,712.00
2019-05-19T04:06:44.947Z,724.00
2019-05-19T04:07:45.124Z,736.00
2019-05-19T04:08:45.294Z,752.00
2019-05-19T04:09:45.459Z,780.00
2019-05-19T04:10:45.633Z,808.00
2019-05-19T04:11:45.798Z,832.00
2019-05-19T04:12:45.978Z,860.00
2019-05-19T04:13:46.168Z,900.00
2019-05-19T04:14:46.349Z,944.00
2019-05-19T04:15:46.506Z,1000.00
2019-05-19T04:16:46.720Z,1060.00
2019-05-19T04:17:46.890Z,1112.00
2019-05-19T04:18:47.109Z,1156.00
2019-05-19T04:19:47.218Z,1180.00
2019-05-19T04:20:47.400Z,1200.00
2019-05-19T04:21:49.535Z,1212.00
2019-05-19T04:22:47.740Z,1240.00
2019-05-19T04:23:47.913Z,1280.00
2019-05-19T04:24:48.180Z,1316.00
2019-05-19T04:25:48.246Z,1352.00
2019-05-19T04:26:48.421Z,1388.00
2019-05-19T04:27:48.591Z,1408.00
2019-05-19T04:28:48.750Z,1420.00
2019-05-19T04:29:48.940Z,1440.00
2019-05-19T04:30:49.102Z,1472.00
2019-05-19T04:31:49.273Z,1520.00
2019-05-19T04:32:49.445Z,1564.00
2019-05-19T04:33:49.618Z,1608.00
2019-05-19T04:34:49.788Z,1644.00
2019-05-19T04:35:49.962Z,1680.00
2019-05-19T04:36:50.126Z,1704.00
2019-05-19T04:37:50.296Z,1720.00
2019-05-19T04:38:50.469Z,1704.00
2019-05-19T04:39:50.638Z,1684.00
2019-05-19T04:40:50.817Z,1684.00
2019-05-19T04:41:50.990Z,1676.00
2019-05-19T04:42:51.155Z,1672.00
2019-05-19T04:43:51.327Z,1664.00
2019-05-19T04:44:51.505Z,1648.00
2019-05-19T04:45:51.675Z,1636.00
2019-05-19T04:46:51.846Z,1636.00
2019-05-19T04:47:52.013Z,1648.00
2019-05-19T04:48:52.165Z,1668.00
2019-05-19T04:49:52.348Z,1704.00
2019-05-19T04:50:52.515Z,1744.00
2019-05-19T04:52:05.992Z,1796.00
2019-05-19T04:52:52.860Z,1860.00
2019-05-19T04:53:53.030Z,1932.00
2019-05-19T04:54:53.200Z,2004.00
2019-05-19T04:55:53.378Z,2072.00
2019-05-19T04:56:53.552Z,2112.00
2019-05-19T04:57:53.712Z,2156.00
2019-05-19T04:58:53.892Z,2200.00
2019-05-19T04:59:54.051Z,2260.00
2019-05-19T05:00:54.217Z,2328.00
2019-05-19T05:01:54.383Z,2400.00
2019-05-19T05:02:54.560Z,2464.00
2019-05-19T05:03:54.719Z,2532.00
2019-05-19T05:04:54.899Z,2588.00
2019-05-19T05:05:55.059Z,2636.00
2019-05-19T05:06:55.233Z,2680.00
2019-05-19T05:07:55.402Z,2712.00
2019-05-19T05:08:55.573Z,2740.00
2019-05-19T05:09:55.744Z,2764.00
2019-05-19T05:10:55.925Z,2784.00
2019-05-19T05:11:56.084Z,2824.00
2019-05-19T05:12:56.254Z,2884.00
2019-05-19T05:13:56.422Z,2956.00
2019-05-19T05:14:56.594Z,3040.00
2019-05-19T05:15:56.757Z,3124.00
2019-05-19T05:16:56.927Z,3200.00
2019-05-19T05:17:57.097Z,3268.00
2019-05-19T05:18:57.266Z,3324.00
2019-05-19T05:19:57.439Z,3380.00
2019-05-19T05:20:57.608Z,3436.00
2019-05-19T05:21:57.768Z,3468.00
2019-05-19T05:22:57.939Z,3476.00
2019-05-19T05:23:58.102Z,3472.00
2019-05-19T05:24:58.325Z,3480.00
2019-05-19T05:25:58.450Z,3504.00
2019-05-19T05:26:58.621Z,3548.00
2019-05-19T05:27:58.793Z,3624.00
2019-05-19T05:28:59.020Z,3724.00
2019-05-19T05:29:59.130Z,3856.00
2019-05-19T05:30:59.296Z,4060.00
2019-05-19T05:31:59.454Z,4244.00
2019-05-19T05:32:59.629Z,4484.00
2019-05-19T05:33:59.806Z,4764.00
2019-05-19T05:35:00.001Z,5016.00
2019-05-19T05:36:00.159Z,5272.00
2019-05-19T05:37:00.328Z,5488.00
2019-05-19T05:38:00.491Z,5580.00
2019-05-19T05:39:00.654Z,5612.00
2019-05-19T05:40:00.823Z,5624.00
2019-05-19T05:41:00.999Z,5624.00
2019-05-19T05:42:01.212Z,5520.00
2019-05-19T05:43:01.373Z,5448.00
2019-05-19T05:44:01.546Z,5372.00
2019-05-19T05:45:01.715Z,5496.00
2019-05-19T05:46:01.895Z,5748.00
2019-05-19T05:47:02.053Z,5984.00
2019-05-19T05:48:02.331Z,6040.00
2019-05-19T05:49:02.398Z,6024.00
2019-05-19T05:50:02.594Z,6052.00
2019-05-19T05:51:02.746Z,5960.00
2019-05-19T05:52:02.923Z,5940.00
2019-05-19T05:53:03.086Z,5808.00
2019-05-19T05:54:03.259Z,5640.00
2019-05-19T05:55:03.429Z,5420.00
2019-05-19T05:56:03.593Z,4988.00
2019-05-19T05:57:03.766Z,4504.00
2019-05-19T05:58:03.936Z,4544.00
2019-05-19T05:59:04.103Z,4400.00
2019-05-19T06:00:04.275Z,4396.00
2019-05-19T06:01:04.447Z,4316.00
2019-05-19T06:02:04.610Z,4340.00
2019-05-19T06:03:04.779Z,4604.00
2019-05-19T06:04:04.952Z,4600.00
2019-05-19T06:05:05.122Z,4540.00
2019-05-19T06:06:05.301Z,4668.00
2019-05-19T06:07:05.463Z,4680.00
2019-05-19T06:08:05.637Z,4660.00
2019-05-19T06:09:05.811Z,4652.00
2019-05-19T06:10:06.345Z,4576.00
2019-05-19T06:11:06.193Z,4512.00
2019-05-19T06:12:06.364Z,4432.00
2019-05-19T06:13:06.541Z,4472.00
2019-05-19T06:14:06.710Z,4520.00
2019-05-19T06:15:06.882Z,4524.00
2019-05-19T06:16:07.087Z,4496.00
2019-05-19T06:17:07.256Z,4452.00
2019-05-19T06:18:07.430Z,4444.00
2019-05-19T06:19:07.601Z,4444.00
2019-05-19T06:20:08.175Z,4456.00
2019-05-19T06:21:07.949Z,4444.00
2019-05-19T06:22:08.122Z,4444.00
2019-05-19T06:23:08.304Z,4444.00
2019-05-19T06:24:08.479Z,4440.00
2019-05-19T06:25:08.650Z,4424.00
2019-05-19T06:26:08.827Z,4420.00
2019-05-19T06:27:08.984Z,4416.00
2019-05-19T06:28:09.158Z,4404.00
2019-05-19T06:29:09.367Z,4404.00
2019-05-19T06:30:09.551Z,4404.00
2019-05-19T06:31:09.686Z,4424.00
2019-05-19T06:32:09.854Z,4424.00
2019-05-19T06:33:10.020Z,4432.00
2019-05-19T06:34:10.188Z,4452.00
2019-05-19T06:35:10.370Z,4472.00
2019-05-19T06:36:10.536Z,4488.00
2019-05-19T06:37:10.712Z,4516.00
2019-05-19T06:38:10.879Z,4556.00
2019-05-19T06:39:11.065Z,4592.00
2019-05-19T06:40:11.236Z,4636.00
2019-05-19T06:41:11.413Z,4676.00
2019-05-19T06:42:11.579Z,4704.00
2019-05-19T06:43:11.989Z,4704.00
2019-05-19T06:44:11.862Z,4720.00
2019-05-19T06:45:12.031Z,4732.00
2019-05-19T06:46:12.193Z,4748.00
2019-05-19T06:47:12.378Z,4768.00
2019-05-19T06:48:12.585Z,4808.00
2019-05-19T06:49:12.830Z,4864.00
2019-05-19T06:50:12.857Z,4928.00
2019-05-19T06:51:13.025Z,5000.00
2019-05-19T06:52:13.196Z,5052.00
2019-05-19T06:53:14.708Z,5100.00
2019-05-19T06:54:13.712Z,5148.00
2019-05-19T06:55:13.678Z,5244.00
2019-05-19T06:56:13.838Z,5340.00
2019-05-19T06:57:14.028Z,5404.00
2019-05-19T06:58:14.202Z,5460.00
2019-05-19T06:59:14.372Z,5516.00
2019-05-19T07:00:14.548Z,5580.00
2019-05-19T07:01:14.709Z,5640.00
2019-05-19T07:02:14.885Z,5724.00
2019-05-19T07:03:15.065Z,5828.00
2019-05-19T07:04:15.535Z,5960.00
2019-05-19T07:05:15.392Z,6108.00
2019-05-19T07:06:15.570Z,6248.00
2019-05-19T07:07:15.738Z,6372.00
2019-05-19T07:08:16.220Z,6460.00
2019-05-19T07:09:16.104Z,6564.00
2019-05-19T07:10:16.262Z,6696.00
2019-05-19T07:11:16.442Z,6848.00
2019-05-19T07:12:16.601Z,6996.00
2019-05-19T07:13:16.774Z,7112.00
2019-05-19T07:14:17.084Z,7228.00
2019-05-19T07:15:17.236Z,7348.00
2019-05-19T07:16:17.308Z,7476.00
2019-05-19T07:17:17.491Z,7596.00
2019-05-19T07:18:17.715Z,7740.00
2019-05-19T07:19:17.873Z,7908.00
2019-05-19T07:20:18.034Z,8088.00
2019-05-19T07:21:18.398Z,8268.00
2019-05-19T07:22:18.362Z,8456.00
2019-05-19T07:23:27.944Z,8680.00
2019-05-19T07:24:18.714Z,8884.00
2019-05-19T07:25:18.901Z,9152.00
2019-05-19T07:26:19.248Z,9568.00
2019-05-19T07:27:19.267Z,10200.00
2019-05-19T07:28:19.451Z,11112.00
2019-05-19T07:29:19.622Z,14492.00
2019-05-19T07:30:19.796Z,29696.00
2019-05-19T07:31:19.988Z,57952.00
2019-05-19T07:32:20.814Z,75168.00
2019-05-19T07:33:20.442Z,83648.00
2019-05-19T07:34:20.632Z,86720.00
2019-05-19T07:35:20.765Z,91232.00
2019-05-19T07:36:20.969Z,93728.00
2019-05-19T07:37:21.149Z,94880.00
2019-05-19T07:38:21.337Z,94816.00
2019-05-19T07:39:21.516Z,95648.00
2019-05-19T07:40:21.698Z,96992.00
2019-05-19T07:41:21.880Z,98944.00
2019-05-19T07:42:22.068Z,97760.00
2019-05-19T07:43:22.312Z,95712.00
2019-05-19T07:44:22.442Z,99456.00
2019-05-19T07:45:22.674Z,96416.00
2019-05-19T07:46:22.838Z,92704.00
2019-05-19T07:47:23.029Z,94784.00
2019-05-19T07:48:23.208Z,93792.00
2019-05-19T07:49:23.418Z,94048.00
2019-05-19T07:50:23.588Z,93120.00
2019-05-19T07:51:23.763Z,91712.00
2019-05-19T07:52:23.943Z,90304.00
2019-05-19T07:53:24.169Z,86880.00
2019-05-19T07:54:24.361Z,85632.00
2019-05-19T07:55:24.549Z,85824.00
2019-05-19T07:56:24.735Z,90048.00
2019-05-19T07:57:24.930Z,94752.00
2019-05-19T07:58:25.105Z,98080.00
2019-05-19T07:59:25.276Z,102880.00
2019-05-19T08:00:25.469Z,105728.00
2019-05-19T08:01:25.649Z,104864.00
2019-05-19T08:02:25.837Z,101824.00
2019-05-19T08:03:26.020Z,100928.00
2019-05-19T08:04:26.202Z,100672.00
2019-05-19T08:05:26.397Z,99904.00
2019-05-19T08:06:26.573Z,98784.00
2019-05-19T08:07:26.763Z,98880.00
2019-05-19T08:08:26.954Z,99552.00
2019-05-19T08:09:27.127Z,97408.00
2019-05-19T08:10:27.451Z,98784.00
2019-05-19T08:11:27.503Z,98112.00
2019-05-19T08:12:27.688Z,98592.00
2019-05-19T08:13:27.868Z,98080.00
2019-05-19T08:14:28.054Z,97664.00
2019-05-19T08:15:28.235Z,98464.00
2019-05-19T08:16:28.418Z,96992.00
2019-05-19T08:17:28.609Z,97536.00
2019-05-19T08:18:28.809Z,97568.00
2019-05-19T08:19:29.002Z,97696.00
2019-05-19T08:20:29.191Z,97920.00
2019-05-19T08:21:29.360Z,97024.00
2019-05-19T08:22:29.546Z,95584.00
2019-05-19T08:23:29.742Z,94368.00
2019-05-19T08:24:29.918Z,98656.00
2019-05-19T08:25:30.174Z,97632.00
2019-05-19T08:26:30.282Z,97760.00
2019-05-19T08:27:30.606Z,96960.00
2019-05-19T08:28:30.634Z,95264.00
2019-05-19T08:29:31.099Z,96384.00
2019-05-19T08:30:31.499Z,96608.00
2019-05-19T08:31:31.238Z,95776.00
2019-05-19T08:32:31.652Z,97568.00
2019-05-19T08:33:31.577Z,93728.00
2019-05-19T08:34:31.826Z,94400.00
2019-05-19T08:35:33.341Z,95776.00
2019-05-19T08:36:32.235Z,93440.00
2019-05-19T08:37:32.421Z,93344.00
2019-05-19T08:38:32.454Z,94752.00
2019-05-19T08:39:33.169Z,94944.00
2019-05-19T08:40:32.675Z,93696.00
2019-05-19T08:41:33.604Z,92704.00
2019-05-19T08:42:33.884Z,92576.00
2019-05-19T08:43:33.607Z,91136.00
2019-05-19T08:44:33.868Z,88768.00
2019-05-19T08:45:36.799Z,89184.00
2019-05-19T08:46:35.585Z,89888.00
2019-05-19T08:47:34.537Z,91072.00
2019-05-19T08:48:35.554Z,91616.00
2019-05-19T08:49:34.497Z,89568.00
2019-05-19T08:50:34.506Z,87936.00
2019-05-19T08:51:35.118Z,87520.00
2019-05-19T08:52:36.487Z,89088.00
2019-05-19T08:53:36.104Z,88384.00
2019-05-19T08:54:35.930Z,89184.00
2019-05-19T08:55:37.900Z,87552.00
2019-05-19T08:56:36.581Z,86368.00
2019-05-19T08:57:37.615Z,82688.00
2019-05-19T08:58:36.117Z,82432.00
2019-05-19T08:59:37.483Z,82688.00
2019-05-19T09:00:38.558Z,85152.00
2019-05-19T09:01:36.558Z,83776.00
2019-05-19T09:02:37.378Z,84224.00
2019-05-19T09:03:36.853Z,86048.00
2019-05-19T09:04:37.052Z,85920.00
2019-05-19T09:05:37.321Z,86208.00
2019-05-19T09:06:38.172Z,85056.00
2019-05-19T09:07:40.260Z,82432.00
2019-05-19T09:08:38.316Z,82112.00
2019-05-19T09:09:39.744Z,81664.00
2019-05-19T09:10:39.255Z,81152.00
2019-05-19T09:11:38.794Z,80832.00
2019-05-19T09:12:38.485Z,80480.00
2019-05-19T09:13:39.816Z,78752.00
2019-05-19T09:14:38.904Z,76128.00
2019-05-19T09:15:39.011Z,75744.00
2019-05-19T09:16:39.633Z,74368.00
2019-05-19T09:17:39.287Z,74304.00
2019-05-19T09:18:39.492Z,74752.00
2019-05-19T09:19:40.646Z,77408.00
2019-05-19T09:20:39.877Z,80256.00
2019-05-19T09:21:40.153Z,80928.00
2019-05-19T09:22:42.109Z,80192.00
2019-05-19T09:23:41.347Z,78976.00
2019-05-19T09:24:40.899Z,77344.00
2019-05-19T09:25:41.303Z,77504.00
2019-05-19T09:26:42.508Z,75424.00
2019-05-19T09:27:41.815Z,74048.00
2019-05-19T09:28:41.394Z,75488.00
2019-05-19T09:29:42.604Z,78176.00
2019-05-19T09:30:42.536Z,79072.00
2019-05-19T09:31:41.890Z,77984.00
2019-05-19T09:32:42.195Z,75840.00
2019-05-19T09:33:42.217Z,77280.00
2019-05-19T09:34:43.770Z,78816.00
2019-05-19T09:35:43.593Z,78912.00
2019-05-19T09:36:44.577Z,74720.00
2019-05-19T09:37:44.293Z,72608.00
2019-05-19T09:38:43.665Z,73152.00
2019-05-19T09:39:43.324Z,75616.00
2019-05-19T09:40:43.512Z,76960.00
2019-05-19T09:41:43.694Z,76768.00
2019-05-19T09:42:43.890Z,75872.00
2019-05-19T09:43:44.810Z,76672.00
2019-05-19T09:44:45.414Z,78656.00
2019-05-19T09:45:45.218Z,78208.00
2019-05-19T09:46:44.809Z,78752.00
2019-05-19T09:47:46.620Z,76512.00
2019-05-19T09:48:44.949Z,71712.00
2019-05-19T09:49:45.185Z,70784.00
2019-05-19T09:50:45.362Z,27488.00
2019-05-19T09:51:45.838Z,58848.00
2019-05-19T09:52:46.614Z,7340.00
2019-05-19T09:53:46.541Z,6088.00
2019-05-19T09:54:46.697Z,6084.00
2019-05-19T09:55:46.266Z,6216.00
2019-05-19T09:56:46.465Z,7444.00
2019-05-19T09:57:46.649Z,10484.00
2019-05-19T09:58:46.846Z,33472.00
2019-05-19T09:59:47.033Z,73376.00
2019-05-19T10:00:47.210Z,70816.00
2019-05-19T10:01:48.629Z,68224.00
2019-05-19T10:02:47.583Z,68096.00
2019-05-19T10:03:47.760Z,67744.00
2019-05-19T10:04:48.928Z,6400.00
2019-05-19T10:05:48.196Z,6468.00
2019-05-19T10:06:48.407Z,6640.00
2019-05-19T10:07:48.544Z,6832.00
2019-05-19T10:08:48.742Z,6960.00
2019-05-19T10:09:48.938Z,6876.00
2019-05-19T10:10:49.120Z,7408.00
2019-05-19T10:11:50.934Z,8892.00
2019-05-19T10:12:49.797Z,13088.00
2019-05-19T10:13:49.977Z,69792.00
2019-05-19T10:14:50.753Z,67744.00
2019-05-19T10:15:50.423Z,67264.00
2019-05-19T10:16:50.563Z,66240.00
2019-05-19T10:17:50.786Z,66048.00
2019-05-19T10:18:50.695Z,65728.00
2019-05-19T10:19:52.062Z,63776.00
2019-05-19T10:20:52.134Z,67552.00
2019-05-19T10:21:51.295Z,70880.00
2019-05-19T10:22:52.222Z,67648.00
2019-05-19T10:23:51.995Z,58208.00
2019-05-19T10:25:10.466Z,49536.00
2019-05-19T10:25:51.948Z,47936.00
2019-05-19T10:26:52.254Z,55840.00
2019-05-19T10:27:52.366Z,66720.00
2019-05-19T10:28:52.541Z,72704.00
2019-05-19T10:29:53.289Z,68800.00
2019-05-19T10:30:52.686Z,65440.00
2019-05-19T10:31:54.514Z,64896.00
2019-05-19T10:32:52.995Z,63328.00
2019-05-19T10:33:53.187Z,61120.00
2019-05-19T10:34:53.456Z,59488.00
2019-05-19T10:35:53.475Z,59296.00
2019-05-19T10:36:53.683Z,59424.00
2019-05-19T10:37:53.957Z,61056.00
2019-05-19T10:38:54.557Z,61184.00
2019-05-19T10:39:55.327Z,59488.00
2019-05-19T10:40:54.307Z,59616.00
2019-05-19T10:41:54.812Z,60256.00
2019-05-19T10:42:54.786Z,61120.00
2019-05-19T10:43:54.884Z,59072.00
2019-05-19T10:44:55.103Z,52224.00
2019-05-19T10:45:55.168Z,54848.00
2019-05-19T10:46:55.226Z,59264.00
2019-05-19T10:47:55.455Z,57248.00
2019-05-19T10:48:55.573Z,53888.00
2019-05-19T10:49:55.614Z,50752.00
2019-05-19T10:50:55.950Z,50720.00
2019-05-19T10:51:58.061Z,49408.00
2019-05-19T10:52:57.296Z,49952.00
2019-05-19T10:53:56.608Z,51264.00
2019-05-19T10:54:56.685Z,51072.00
2019-05-19T10:55:56.928Z,41056.00
2019-05-19T10:56:57.195Z,28960.00
2019-05-19T10:57:57.305Z,24192.00
2019-05-19T10:58:57.731Z,23296.00
2019-05-19T10:59:57.632Z,25248.00
2019-05-19T11:00:59.662Z,25728.00
2019-05-19T11:01:58.136Z,16544.00
2019-05-19T11:02:58.380Z,13700.00
2019-05-19T11:03:58.707Z,14264.00
2019-05-19T11:04:58.762Z,17696.00
2019-05-19T11:05:58.971Z,21984.00
2019-05-19T11:06:59.313Z,21856.00
2019-05-19T11:07:59.133Z,19904.00
2019-05-19T11:08:59.580Z,21280.00
2019-05-19T11:09:59.794Z,19488.00
2019-05-19T11:11:00.074Z,20320.00
2019-05-19T11:12:00.175Z,20512.00
2019-05-19T11:13:00.335Z,20288.00
2019-05-19T11:14:00.405Z,20000.00
2019-05-19T11:15:00.608Z,18624.00
2019-05-19T11:16:00.712Z,15216.00
2019-05-19T11:17:00.823Z,12604.00
2019-05-19T11:18:00.811Z,12124.00
2019-05-19T11:19:00.996Z,11872.00
2019-05-19T11:20:01.264Z,10488.00
2019-05-19T11:21:01.587Z,10552.00
2019-05-19T11:22:02.021Z,9364.00
2019-05-19T11:23:03.475Z,8084.00
2019-05-19T11:24:02.094Z,7124.00
2019-05-19T11:25:03.089Z,7028.00
2019-05-19T11:26:02.950Z,8728.00
2019-05-19T11:27:02.672Z,10376.00
2019-05-19T11:28:02.868Z,11280.00
2019-05-19T11:29:02.950Z,16992.00
2019-05-19T11:30:03.104Z,19232.00
2019-05-19T11:31:03.386Z,20608.00
2019-05-19T11:32:03.603Z,19680.00
2019-05-19T11:33:03.827Z,17344.00
2019-05-19T11:34:04.110Z,14876.00
2019-05-19T11:35:03.973Z,14544.00
2019-05-19T11:36:04.267Z,14512.00
2019-05-19T11:37:07.218Z,14440.00
2019-05-19T11:38:04.471Z,14336.00
2019-05-19T11:39:04.708Z,14180.00
2019-05-19T11:40:04.928Z,13872.00
2019-05-19T11:41:04.991Z,13584.00
2019-05-19T11:42:05.509Z,13380.00
2019-05-19T11:43:05.309Z,13368.00
2019-05-19T11:44:05.502Z,13536.00
2019-05-19T11:45:05.729Z,13384.00
2019-05-19T11:46:05.970Z,13540.00
2019-05-19T11:47:05.992Z,12952.00
2019-05-19T11:48:05.965Z,12360.00
2019-05-19T11:49:06.547Z,11820.00
2019-05-19T11:50:06.235Z,11288.00
2019-05-19T11:51:07.685Z,10828.00
2019-05-19T11:52:06.702Z,10208.00
2019-05-19T11:53:06.765Z,9756.00
2019-05-19T11:54:07.648Z,9596.00
2019-05-19T11:55:08.287Z,9748.00
2019-05-19T11:56:10.985Z,9916.00
2019-05-19T11:57:07.375Z,9980.00
2019-05-19T11:58:07.556Z,9888.00
2019-05-19T11:59:07.730Z,10036.00
2019-05-19T12:00:07.935Z,9896.00
2019-05-19T12:01:08.142Z,10308.00
2019-05-19T12:02:08.288Z,10612.00
2019-05-19T12:03:08.463Z,11128.00
2019-05-19T12:04:08.715Z,11472.00
2019-05-19T12:05:09.336Z,11444.00
2019-05-19T12:06:11.565Z,11140.00
2019-05-19T12:07:09.213Z,10872.00
2019-05-19T12:08:09.394Z,10552.00
2019-05-19T12:09:09.580Z,10716.00
2019-05-19T12:10:10.404Z,10632.00
2019-05-19T12:11:09.906Z,10876.00
2019-05-19T12:12:11.363Z,10676.00
2019-05-19T12:13:10.302Z,10448.00
2019-05-19T12:14:10.500Z,10564.00
2019-05-19T12:15:10.651Z,10044.00
2019-05-19T12:16:11.581Z,9936.00
2019-05-19T12:17:11.708Z,10148.00
2019-05-19T12:18:11.211Z,10304.00
2019-05-19T12:19:11.364Z,10568.00